createdAt,value
2022-09-30T00:01:22.068Z,76.91
2022-09-30T00:03:24.410Z,77.28
2022-09-30T00:05:26.310Z,77.67
2022-09-30T00:07:27.967Z,78.47
2022-09-30T00:09:29.780Z,79.13
2022-09-30T00:11:34.040Z,78.84
2022-09-30T00:13:38.019Z,78.77
2022-09-30T00:15:40.098Z,78.35
2022-09-30T00:17:41.908Z,78.28
2022-09-30T00:19:43.768Z,78.27
2022-09-30T00:21:45.676Z,78.03
2022-09-30T00:23:47.434Z,77.93
2022-09-30T00:25:49.119Z,78.06
2022-09-30T00:27:50.876Z,77.81
2022-09-30T00:29:52.561Z,77.62
2022-09-30T00:31:54.446Z,77.19
2022-09-30T00:34:14.421Z,77.19
2022-09-30T00:36:16.122Z,77.29
2022-09-30T00:38:17.782Z,76.99
2022-09-30T00:40:20.164Z,77.35
2022-09-30T00:42:22.694Z,77.14
2022-09-30T00:45:06.556Z,77.22
2022-09-30T00:47:42.396Z,77.60
2022-09-30T00:49:44.094Z,78.05
2022-09-30T00:51:49.398Z,78.18
2022-09-30T00:53:58.350Z,78.15
2022-09-30T00:56:06.929Z,78.25
2022-09-30T00:58:09.906Z,78.80
2022-09-30T01:00:11.734Z,79.65
2022-09-30T01:02:14.581Z,81.09
2022-09-30T01:04:18.280Z,80.71
2022-09-30T01:06:22.779Z,80.55
2022-09-30T01:08:25.498Z,80.48
2022-09-30T01:10:27.264Z,80.25
2022-09-30T01:12:29.041Z,80.46
2022-09-30T01:14:30.721Z,80.15
2022-09-30T01:17:07.861Z,79.70
2022-09-30T01:19:27.901Z,79.70
2022-09-30T01:22:19.999Z,79.57
2022-09-30T01:24:58.854Z,79.37
2022-09-30T01:27:23.524Z,78.80
2022-09-30T01:29:31.393Z,79.41
2022-09-30T01:31:52.627Z,80.19
2022-09-30T01:34:06.593Z,80.07
2022-09-30T01:36:40.369Z,80.19
2022-09-30T01:39:08.401Z,79.65
2022-09-30T01:41:26.186Z,78.85
2022-09-30T01:43:45.485Z,79.00
2022-09-30T01:45:52.257Z,79.34
2022-09-30T01:48:01.925Z,79.27
2022-09-30T01:50:18.195Z,79.40
2022-09-30T01:52:28.348Z,79.47
2022-09-30T01:54:36.114Z,79.61
2022-09-30T01:57:07.018Z,79.45
2022-09-30T01:59:13.466Z,79.39
2022-09-30T02:01:31.824Z,79.66
2022-09-30T02:03:40.442Z,80.04
2022-09-30T02:05:53.681Z,79.83
2022-09-30T02:07:58.988Z,80.36
2022-09-30T02:10:10.936Z,79.90
2022-09-30T02:12:16.133Z,80.18
2022-09-30T02:14:28.822Z,80.03
2022-09-30T02:16:47.440Z,80.14
2022-09-30T02:18:53.007Z,80.28
2022-09-30T02:20:59.660Z,79.99
2022-09-30T02:23:07.716Z,80.01
2022-09-30T02:25:15.118Z,80.63
2022-09-30T02:27:21.604Z,81.07
2022-09-30T02:29:27.831Z,80.95
2022-09-30T02:31:32.392Z,80.65
2022-09-30T02:33:49.702Z,80.46
2022-09-30T02:35:57.723Z,80.63
2022-09-30T02:38:20.222Z,80.05
2022-09-30T02:40:39.892Z,79.52
2022-09-30T02:42:44.090Z,79.64
2022-09-30T02:44:47.494Z,79.57
2022-09-30T02:46:56.977Z,79.21
2022-09-30T02:49:20.014Z,79.14
2022-09-30T02:51:30.063Z,79.29
2022-09-30T02:53:46.297Z,78.59
2022-09-30T02:56:15.279Z,78.96
2022-09-30T02:58:21.472Z,79.59
2022-09-30T03:00:24.219Z,80.70
2022-09-30T03:02:25.965Z,81.00
2022-09-30T03:04:31.165Z,81.13
2022-09-30T03:06:33.040Z,81.47
2022-09-30T03:08:35.112Z,81.53
2022-09-30T03:10:37.000Z,82.69
2022-09-30T03:12:58.971Z,83.43
2022-09-30T03:15:20.831Z,83.41
2022-09-30T03:17:44.779Z,82.52
2022-09-30T03:19:46.346Z,82.60
2022-09-30T03:22:11.590Z,81.90
2022-09-30T03:24:13.304Z,83.36
2022-09-30T03:26:37.753Z,84.77
2022-09-30T03:29:01.123Z,84.04
2022-09-30T03:31:38.545Z,83.89
2022-09-30T03:33:53.298Z,84.38
2022-09-30T03:36:06.775Z,83.83
2022-09-30T03:38:41.660Z,83.62
2022-09-30T03:41:01.024Z,84.13
2022-09-30T03:43:14.161Z,84.28
2022-09-30T03:45:30.451Z,84.34
2022-09-30T03:47:35.218Z,83.85
2022-09-30T03:49:43.243Z,83.69
2022-09-30T03:51:45.135Z,83.29
2022-09-30T03:53:47.078Z,83.11
2022-09-30T03:55:51.543Z,82.96
2022-09-30T03:57:54.454Z,82.50
2022-09-30T04:00:00.030Z,82.43
2022-09-30T04:02:02.599Z,81.91
2022-09-30T04:04:04.369Z,81.95
2022-09-30T04:06:09.831Z,82.36
2022-09-30T04:08:11.906Z,81.92
2022-09-30T04:10:13.465Z,81.86
2022-09-30T04:12:15.082Z,81.63
2022-09-30T04:14:16.951Z,81.52
2022-09-30T04:16:19.083Z,81.45
2022-09-30T04:18:20.741Z,80.97
2022-09-30T04:20:22.473Z,81.51
2022-09-30T04:22:26.486Z,81.74
2022-09-30T04:24:28.327Z,82.33
2022-09-30T04:26:30.125Z,82.08
2022-09-30T04:28:32.244Z,81.55
2022-09-30T04:30:33.933Z,81.71
2022-09-30T04:32:35.627Z,81.40
2022-09-30T04:34:37.883Z,80.98
2022-09-30T04:36:39.886Z,80.82
2022-09-30T04:38:41.535Z,80.58
2022-09-30T04:40:43.471Z,80.17
2022-09-30T04:42:45.242Z,80.43
2022-09-30T04:44:48.213Z,80.44
2022-09-30T04:46:50.784Z,80.23
2022-09-30T04:48:52.336Z,80.35
2022-09-30T04:50:54.067Z,80.34
2022-09-30T04:52:56.989Z,80.09
2022-09-30T04:54:58.801Z,80.19
2022-09-30T04:57:00.430Z,81.69
2022-09-30T04:59:02.092Z,82.03
2022-09-30T05:01:12.807Z,82.25
2022-09-30T05:03:15.098Z,81.99
2022-09-30T05:05:16.854Z,81.74
2022-09-30T05:07:18.580Z,82.69
2022-09-30T05:09:20.370Z,83.48
2022-09-30T05:11:22.727Z,83.58
2022-09-30T05:13:26.024Z,83.41
2022-09-30T05:15:27.907Z,82.82
2022-09-30T05:17:30.706Z,82.84
2022-09-30T05:19:32.475Z,83.21
2022-09-30T05:21:34.170Z,82.85
2022-09-30T05:23:35.856Z,82.82
2022-09-30T05:25:37.472Z,82.91
2022-09-30T05:27:39.070Z,83.48
2022-09-30T05:29:40.662Z,83.40
2022-09-30T05:31:42.870Z,83.58
2022-09-30T05:33:45.196Z,82.96
2022-09-30T05:35:47.819Z,83.12
2022-09-30T05:37:49.518Z,82.91
2022-09-30T05:39:51.179Z,82.68
2022-09-30T05:41:52.802Z,82.37
2022-09-30T05:43:54.529Z,82.37
2022-09-30T05:45:57.321Z,81.69
2022-09-30T05:47:58.993Z,80.97
2022-09-30T05:50:00.745Z,81.28
2022-09-30T05:52:02.537Z,81.82
2022-09-30T05:54:04.129Z,82.92
2022-09-30T05:56:07.504Z,83.03
2022-09-30T05:58:09.100Z,83.67
2022-09-30T06:00:11.456Z,84.63
2022-09-30T06:02:14.378Z,84.99
2022-09-30T06:04:16.315Z,84.72
2022-09-30T06:06:19.639Z,84.21
2022-09-30T06:08:21.653Z,82.94
2022-09-30T06:10:24.252Z,83.08
2022-09-30T06:12:27.633Z,83.11
2022-09-30T06:14:29.547Z,83.19
2022-09-30T06:16:32.131Z,83.32
2022-09-30T06:18:33.823Z,82.65
2022-09-30T06:20:38.991Z,82.86
2022-09-30T06:22:43.429Z,82.92
2022-09-30T06:24:45.833Z,82.60
2022-09-30T06:26:47.479Z,82.58
2022-09-30T06:28:50.276Z,81.90
2022-09-30T06:30:51.889Z,81.31
2022-09-30T06:32:57.132Z,81.16
2022-09-30T06:34:58.807Z,81.30
2022-09-30T06:37:01.366Z,81.17
2022-09-30T06:39:04.852Z,81.41
2022-09-30T06:41:07.289Z,81.43
2022-09-30T06:43:09.415Z,81.70
2022-09-30T06:45:20.306Z,82.57
2022-09-30T06:47:26.159Z,82.82
2022-09-30T06:49:34.937Z,82.44
2022-09-30T06:51:42.677Z,82.87
2022-09-30T06:53:44.481Z,82.81
2022-09-30T06:55:46.140Z,82.50
2022-09-30T06:57:48.266Z,82.01
2022-09-30T06:59:50.735Z,81.60
2022-09-30T07:01:52.675Z,81.47
2022-09-30T07:03:58.292Z,79.96
2022-09-30T07:06:01.865Z,80.02
2022-09-30T07:08:03.732Z,79.58
2022-09-30T07:10:05.914Z,80.30
2022-09-30T07:12:07.559Z,80.97
2022-09-30T07:14:10.285Z,81.23
2022-09-30T07:16:15.698Z,81.82
2022-09-30T07:18:20.557Z,82.50
2022-09-30T07:20:22.461Z,82.17
2022-09-30T07:22:34.623Z,81.59
2022-09-30T07:24:36.500Z,81.95
2022-09-30T07:26:39.616Z,81.30
2022-09-30T07:28:41.628Z,80.51
2022-09-30T07:30:43.862Z,79.25
2022-09-30T07:32:45.479Z,78.15
2022-09-30T07:34:47.455Z,77.72
2022-09-30T07:36:49.498Z,77.39
2022-09-30T07:38:51.519Z,77.50
2022-09-30T07:41:06.866Z,77.44
2022-09-30T07:43:28.013Z,76.35
2022-09-30T07:45:29.658Z,74.78
2022-09-30T07:47:31.329Z,72.60
2022-09-30T07:49:32.957Z,72.99
2022-09-30T07:51:38.593Z,73.12
2022-09-30T07:53:41.237Z,72.52
2022-09-30T07:55:42.788Z,72.43
2022-09-30T07:57:44.393Z,71.90
2022-09-30T07:59:46.075Z,72.07
2022-09-30T08:01:47.734Z,72.05
2022-09-30T08:03:53.478Z,71.92
2022-09-30T08:05:55.342Z,71.91
2022-09-30T08:07:56.920Z,71.76
2022-09-30T08:09:58.550Z,72.27
2022-09-30T08:12:02.870Z,71.95
2022-09-30T08:14:05.507Z,71.56
2022-09-30T08:16:07.712Z,71.51
2022-09-30T08:18:09.636Z,70.81
2022-09-30T08:20:13.795Z,69.81
2022-09-30T08:22:17.325Z,69.69
2022-09-30T08:24:19.105Z,69.78
2022-09-30T08:26:20.790Z,70.00
2022-09-30T08:28:22.383Z,69.15
2022-09-30T08:30:24.158Z,68.70
2022-09-30T08:32:25.872Z,67.75
2022-09-30T08:34:27.533Z,66.87
2022-09-30T08:36:29.552Z,66.41
2022-09-30T08:38:31.256Z,65.87
2022-09-30T08:40:34.409Z,66.68
2022-09-30T08:43:09.220Z,67.46
2022-09-30T08:45:26.109Z,67.50
2022-09-30T08:48:05.367Z,67.17
2022-09-30T08:50:54.256Z,66.27
2022-09-30T08:53:03.888Z,65.75
2022-09-30T08:55:06.394Z,65.63
2022-09-30T08:57:10.871Z,65.47
2022-09-30T08:59:28.578Z,65.28
2022-09-30T09:01:34.887Z,64.27
2022-09-30T09:03:36.613Z,63.74
2022-09-30T09:05:52.489Z,63.87
2022-09-30T09:08:03.538Z,65.88
2022-09-30T09:10:16.584Z,66.70
2022-09-30T09:12:31.636Z,67.33
2022-09-30T09:14:43.647Z,66.40
2022-09-30T09:17:27.057Z,65.87
2022-09-30T09:19:38.476Z,64.55
2022-09-30T09:21:49.211Z,64.30
2022-09-30T09:23:53.692Z,64.06
2022-09-30T09:25:55.774Z,63.25
2022-09-30T09:28:03.518Z,62.72
2022-09-30T09:30:16.457Z,62.03
2022-09-30T09:32:18.990Z,59.80
2022-09-30T09:34:23.535Z,60.54
2022-09-30T09:36:46.310Z,60.15
2022-09-30T09:39:07.086Z,59.69
2022-09-30T09:41:17.517Z,58.84
2022-09-30T09:43:48.342Z,59.64
2022-09-30T09:46:00.574Z,58.99
2022-09-30T09:48:02.273Z,59.24
2022-09-30T09:50:06.646Z,58.58
2022-09-30T09:52:12.479Z,58.51
2022-09-30T09:54:17.374Z,58.42
2022-09-30T09:56:29.720Z,57.62
2022-09-30T09:58:34.192Z,57.18
2022-09-30T10:00:47.959Z,55.73
2022-09-30T10:03:06.094Z,54.42
2022-09-30T10:05:26.448Z,53.32
2022-09-30T10:07:30.325Z,53.06
2022-09-30T10:09:38.193Z,51.58
2022-09-30T10:11:39.816Z,51.73
2022-09-30T10:13:45.410Z,51.53
2022-09-30T10:15:47.990Z,51.04
2022-09-30T10:17:57.791Z,49.39
2022-09-30T10:20:07.594Z,48.62
2022-09-30T10:22:09.299Z,48.48
2022-09-30T10:24:28.755Z,48.50
2022-09-30T10:26:30.395Z,46.28
2022-09-30T10:28:35.111Z,46.45
2022-09-30T10:30:41.000Z,46.38
2022-09-30T10:32:42.626Z,46.31
2022-09-30T10:35:03.387Z,45.33
2022-09-30T10:37:11.460Z,44.66
2022-09-30T10:39:28.910Z,45.44
2022-09-30T10:41:32.509Z,45.16
2022-09-30T10:43:44.903Z,44.21
2022-09-30T10:46:01.320Z,44.44
2022-09-30T10:48:17.915Z,43.46
2022-09-30T10:50:22.737Z,44.45
2022-09-30T10:52:26.665Z,43.92
2022-09-30T10:54:40.681Z,44.46
2022-09-30T10:56:45.171Z,43.95
2022-09-30T10:58:51.804Z,43.53
2022-09-30T11:01:25.141Z,44.27
2022-09-30T11:03:41.130Z,43.76
2022-09-30T11:05:45.020Z,42.66
2022-09-30T11:08:00.252Z,41.95
2022-09-30T11:10:14.075Z,42.62
2022-09-30T11:12:18.459Z,41.82
2022-09-30T11:15:01.186Z,41.39
2022-09-30T11:17:04.075Z,42.15
2022-09-30T11:19:05.606Z,40.29
2022-09-30T11:21:15.506Z,37.83
2022-09-30T11:23:37.478Z,37.86
2022-09-30T11:25:48.825Z,38.33
2022-09-30T11:28:09.827Z,37.68
2022-09-30T11:30:28.095Z,38.59
2022-09-30T11:32:48.316Z,37.74
2022-09-30T11:34:59.760Z,38.24
2022-09-30T11:37:22.678Z,38.01
2022-09-30T11:39:35.093Z,38.02
2022-09-30T11:41:40.592Z,38.18
2022-09-30T11:43:45.309Z,37.73
2022-09-30T11:46:03.353Z,36.79
2022-09-30T11:48:20.668Z,37.04
2022-09-30T11:50:44.386Z,37.17
2022-09-30T11:53:25.261Z,37.33
2022-09-30T11:55:38.859Z,37.79
2022-09-30T11:57:46.273Z,38.48
2022-09-30T12:00:16.413Z,38.61
2022-09-30T12:02:39.299Z,39.11
2022-09-30T12:04:43.104Z,38.89
2022-09-30T12:06:52.050Z,39.22
2022-09-30T12:09:02.401Z,39.47
2022-09-30T12:11:59.794Z,39.82
2022-09-30T12:14:07.614Z,39.72
2022-09-30T12:16:21.999Z,39.84
2022-09-30T12:18:40.242Z,39.50
2022-09-30T12:20:44.801Z,39.59
2022-09-30T12:22:47.752Z,39.88
2022-09-30T12:24:49.353Z,38.88
2022-09-30T12:26:51.521Z,38.26
2022-09-30T12:29:33.573Z,38.80
2022-09-30T12:31:54.798Z,38.87
2022-09-30T12:34:31.877Z,38.75
2022-09-30T12:36:45.540Z,38.18
2022-09-30T12:38:57.892Z,38.44
2022-09-30T12:40:59.424Z,38.51
2022-09-30T12:43:07.701Z,38.63
2022-09-30T12:45:22.233Z,38.67
2022-09-30T12:47:31.563Z,38.33
2022-09-30T12:49:34.055Z,38.41
2022-09-30T12:51:40.552Z,38.40
2022-09-30T12:53:42.396Z,37.98
2022-09-30T12:55:44.339Z,37.60
2022-09-30T12:57:47.310Z,37.08
2022-09-30T12:59:58.117Z,37.63
2022-09-30T13:02:01.372Z,37.40
2022-09-30T13:04:02.971Z,37.63
2022-09-30T13:06:06.700Z,37.77
2022-09-30T13:08:09.802Z,37.64
2022-09-30T13:10:31.055Z,38.17
2022-09-30T13:12:44.366Z,37.55
2022-09-30T13:14:45.982Z,37.40
2022-09-30T13:17:10.293Z,37.98
2022-09-30T13:19:21.243Z,37.47
2022-09-30T13:21:24.034Z,38.11
2022-09-30T13:23:41.972Z,37.60
2022-09-30T13:25:56.379Z,37.75
2022-09-30T13:28:20.687Z,37.52
2022-09-30T13:30:22.464Z,36.82
2022-09-30T13:32:57.660Z,37.12
2022-09-30T13:34:59.609Z,37.08
2022-09-30T13:37:03.300Z,37.20
2022-09-30T13:39:23.157Z,37.36
2022-09-30T13:41:26.185Z,37.36
2022-09-30T13:43:34.134Z,37.52
2022-09-30T13:45:39.574Z,36.92
2022-09-30T13:47:48.226Z,37.10
2022-09-30T13:50:14.094Z,37.30
2022-09-30T13:52:23.748Z,37.25
2022-09-30T13:54:31.894Z,36.87
2022-09-30T13:56:35.268Z,36.70
2022-09-30T13:59:10.335Z,36.81
2022-09-30T14:02:10.822Z,37.26
2022-09-30T14:04:33.338Z,36.90
2022-09-30T14:06:37.743Z,36.87
2022-09-30T14:08:48.143Z,37.20
2022-09-30T14:10:59.963Z,37.00
2022-09-30T14:13:42.567Z,36.98
2022-09-30T14:16:02.041Z,36.99
2022-09-30T14:18:33.149Z,36.65
2022-09-30T14:21:11.355Z,36.77
2022-09-30T14:23:15.038Z,36.64
2022-09-30T14:25:18.808Z,37.16
2022-09-30T14:27:29.079Z,36.87
2022-09-30T14:30:04.557Z,36.64
2022-09-30T14:32:39.749Z,36.90
2022-09-30T14:38:15.565Z,36.52
2022-09-30T14:40:25.305Z,37.12
2022-09-30T14:42:32.318Z,36.69
2022-09-30T14:44:36.539Z,36.42
2022-09-30T14:46:41.284Z,36.72
2022-09-30T14:48:44.102Z,36.49
2022-09-30T14:51:01.226Z,36.35
2022-09-30T14:53:03.669Z,36.59
2022-09-30T14:55:28.861Z,36.88
2022-09-30T14:57:31.470Z,36.90
2022-09-30T14:59:34.748Z,36.91
2022-09-30T15:01:37.721Z,36.88
2022-09-30T15:04:03.674Z,36.90
2022-09-30T15:06:07.143Z,36.97
2022-09-30T15:08:18.552Z,37.29
2022-09-30T15:10:24.135Z,37.66
2022-09-30T15:12:26.821Z,37.85
2022-09-30T15:14:28.672Z,37.73
2022-09-30T15:16:33.692Z,37.79
2022-09-30T15:18:44.626Z,37.64
2022-09-30T15:20:46.333Z,37.32
2022-09-30T15:22:48.710Z,37.75
2022-09-30T15:24:51.403Z,37.77
2022-09-30T15:26:55.633Z,38.00
2022-09-30T15:28:57.441Z,38.37
2022-09-30T15:30:59.250Z,38.28
2022-09-30T15:33:04.161Z,38.43
2022-09-30T15:35:17.303Z,39.09
2022-09-30T15:37:25.063Z,39.37
2022-09-30T15:39:47.541Z,39.68
2022-09-30T15:41:49.980Z,39.71
2022-09-30T15:43:52.671Z,40.18
2022-09-30T15:45:58.301Z,40.79
2022-09-30T15:48:02.592Z,40.88
2022-09-30T15:50:05.289Z,41.62
2022-09-30T15:52:36.342Z,42.03
2022-09-30T15:54:39.305Z,42.27
2022-09-30T15:56:42.408Z,43.27
2022-09-30T15:59:03.241Z,43.51
2022-09-30T16:01:27.836Z,43.77
2022-09-30T16:03:30.584Z,44.15
2022-09-30T16:05:33.044Z,44.51
2022-09-30T16:07:35.024Z,44.40
2022-09-30T16:09:41.197Z,44.78
2022-09-30T16:11:45.244Z,45.17
2022-09-30T16:13:48.178Z,45.31
2022-09-30T16:15:51.076Z,45.55
2022-09-30T16:17:52.740Z,45.36
2022-09-30T16:19:59.287Z,45.30
2022-09-30T16:22:01.277Z,45.41
2022-09-30T16:24:03.040Z,46.15
2022-09-30T16:26:20.904Z,45.89
2022-09-30T16:28:22.673Z,46.15
2022-09-30T16:30:25.071Z,46.65
2022-09-30T16:32:27.599Z,46.61
2022-09-30T16:34:30.023Z,46.76
2022-09-30T16:36:32.808Z,47.12
2022-09-30T16:38:34.853Z,46.58
2022-09-30T16:40:38.007Z,46.67
2022-09-30T16:42:39.598Z,47.02
2022-09-30T16:44:44.576Z,47.56
2022-09-30T16:46:46.285Z,47.63
2022-09-30T16:48:47.861Z,47.68
2022-09-30T16:51:14.544Z,48.05
2022-09-30T16:53:16.181Z,48.59
2022-09-30T16:55:17.799Z,48.73
2022-09-30T16:57:19.490Z,49.04
2022-09-30T16:59:21.084Z,48.53
2022-09-30T17:01:25.455Z,48.60
2022-09-30T17:03:28.187Z,49.19
2022-09-30T17:05:29.833Z,49.35
2022-09-30T17:07:31.414Z,49.84
2022-09-30T17:09:33.113Z,50.06
2022-09-30T17:11:35.862Z,50.27
2022-09-30T17:13:37.944Z,49.81
2022-09-30T17:15:39.826Z,49.69
2022-09-30T17:17:41.456Z,50.79
2022-09-30T17:19:43.092Z,50.83
2022-09-30T17:21:46.078Z,51.58
2022-09-30T17:23:47.986Z,51.01
2022-09-30T17:25:49.954Z,51.95
2022-09-30T17:27:51.766Z,52.03
2022-09-30T17:29:53.396Z,51.61
2022-09-30T17:31:55.807Z,50.96
2022-09-30T17:33:57.567Z,51.00
2022-09-30T17:36:00.712Z,50.21
2022-09-30T17:38:06.844Z,49.76
2022-09-30T17:40:27.867Z,49.34
2022-09-30T17:42:47.759Z,48.83
2022-09-30T17:44:49.496Z,48.43
2022-09-30T17:47:00.787Z,48.16
2022-09-30T17:49:02.408Z,48.36
2022-09-30T17:51:04.327Z,48.00
2022-09-30T17:53:06.302Z,48.65
2022-09-30T17:55:08.194Z,48.69
2022-09-30T17:57:09.946Z,48.49
2022-09-30T17:59:11.545Z,48.54
2022-09-30T18:01:14.031Z,48.66
2022-09-30T18:03:15.969Z,48.22
2022-09-30T18:05:17.569Z,48.38
2022-09-30T18:07:21.068Z,48.85
2022-09-30T18:09:23.646Z,49.23
2022-09-30T18:11:26.931Z,49.49
2022-09-30T18:13:28.759Z,49.60
2022-09-30T18:15:31.233Z,49.31
2022-09-30T18:17:32.896Z,49.99
2022-09-30T18:19:35.751Z,49.80
2022-09-30T18:21:38.001Z,49.78
2022-09-30T18:23:39.841Z,49.85
2022-09-30T18:25:43.884Z,49.86
2022-09-30T18:27:49.825Z,49.98
2022-09-30T18:29:51.821Z,49.78
2022-09-30T18:31:53.463Z,49.15
2022-09-30T18:33:56.019Z,48.77
2022-09-30T18:36:00.265Z,48.47
2022-09-30T18:38:02.445Z,48.40
2022-09-30T18:40:04.857Z,48.69
2022-09-30T18:42:06.739Z,49.09
2022-09-30T18:44:09.109Z,48.92
2022-09-30T18:46:11.578Z,49.16
2022-09-30T18:48:13.594Z,49.96
2022-09-30T18:50:17.256Z,50.34
2022-09-30T18:52:18.713Z,50.52
2022-09-30T18:54:20.915Z,51.08
2022-09-30T18:56:23.656Z,50.84
2022-09-30T18:58:25.894Z,51.29
2022-09-30T19:00:29.821Z,51.10
2022-09-30T19:02:32.440Z,50.98
2022-09-30T19:04:34.056Z,52.71
2022-09-30T19:06:35.856Z,52.36
2022-09-30T19:08:37.458Z,52.49
2022-09-30T19:10:41.655Z,52.19
2022-09-30T19:12:45.929Z,52.48
2022-09-30T19:14:47.830Z,53.13
2022-09-30T19:16:51.311Z,52.71
2022-09-30T19:18:54.779Z,52.24
2022-09-30T19:20:56.426Z,51.96
2022-09-30T19:22:58.373Z,51.99
2022-09-30T19:25:00.147Z,51.47
2022-09-30T19:27:02.112Z,52.01
2022-09-30T19:29:05.474Z,52.20
2022-09-30T19:31:15.413Z,52.23
2022-09-30T19:33:20.108Z,52.58
2022-09-30T19:35:34.476Z,53.73
2022-09-30T19:37:51.128Z,54.01
2022-09-30T19:39:56.734Z,54.03
2022-09-30T19:42:03.158Z,53.92
2022-09-30T19:44:05.948Z,53.73
2022-09-30T19:46:09.839Z,54.17
2022-09-30T19:48:11.538Z,53.81
2022-09-30T19:50:13.211Z,53.83
2022-09-30T19:52:21.947Z,53.60
2022-09-30T19:54:37.482Z,53.82
2022-09-30T19:56:41.624Z,54.06
2022-09-30T19:58:46.106Z,54.86
2022-09-30T20:00:54.010Z,55.25
2022-09-30T20:02:57.582Z,55.07
2022-09-30T20:05:00.581Z,55.08
2022-09-30T20:07:02.274Z,54.96
2022-09-30T20:09:06.277Z,54.94
2022-09-30T20:11:10.928Z,54.85
2022-09-30T20:13:12.505Z,55.08
2022-09-30T20:15:32.794Z,56.13
2022-09-30T20:17:35.038Z,56.38
2022-09-30T20:19:36.669Z,56.74
2022-09-30T20:21:38.542Z,56.73
2022-09-30T20:23:41.106Z,56.86
2022-09-30T20:25:42.944Z,57.01
2022-09-30T20:27:48.615Z,57.26
2022-09-30T20:30:12.166Z,57.10
2022-09-30T20:32:13.749Z,58.56
2022-09-30T20:34:16.803Z,58.79
2022-09-30T20:36:20.089Z,58.90
2022-09-30T20:38:24.892Z,58.71
2022-09-30T20:40:26.714Z,58.26
2022-09-30T20:42:30.972Z,58.26
2022-09-30T20:44:33.210Z,58.49
2022-09-30T20:46:35.163Z,58.22
2022-09-30T20:48:38.411Z,58.03
2022-09-30T20:50:40.207Z,57.93
2022-09-30T20:52:41.850Z,57.72
2022-09-30T20:54:43.728Z,57.62
2022-09-30T20:57:06.388Z,57.58
2022-09-30T20:59:08.538Z,57.47
2022-09-30T21:01:14.451Z,57.12
2022-09-30T21:03:16.262Z,57.03
2022-09-30T21:05:18.353Z,57.07
2022-09-30T21:07:20.346Z,57.34
2022-09-30T21:09:21.961Z,57.40
2022-09-30T21:11:24.371Z,57.56
2022-09-30T21:13:26.538Z,58.01
2022-09-30T21:15:28.715Z,58.48
2022-09-30T21:17:31.386Z,60.01
2022-09-30T21:19:33.286Z,60.11
2022-09-30T21:21:35.269Z,59.99
2022-09-30T21:23:37.483Z,59.96
2022-09-30T21:25:39.254Z,59.60
2022-09-30T21:27:40.958Z,59.26
2022-09-30T21:29:43.709Z,59.11
2022-09-30T21:31:45.500Z,59.03
2022-09-30T21:33:56.418Z,58.86
2022-09-30T21:36:02.566Z,58.87
2022-09-30T21:38:04.275Z,58.95
2022-09-30T21:40:06.469Z,59.12
2022-09-30T21:42:08.161Z,59.24
2022-09-30T21:44:10.085Z,59.57
2022-09-30T21:46:13.921Z,59.73
2022-09-30T21:48:15.564Z,60.46
2022-09-30T21:50:17.242Z,61.30
2022-09-30T21:52:18.858Z,62.70
2022-09-30T21:54:20.490Z,62.56
2022-09-30T21:56:23.002Z,62.51
2022-09-30T21:58:26.056Z,62.47
2022-09-30T22:00:28.041Z,62.68
2022-09-30T22:02:29.765Z,62.75
2022-09-30T22:04:31.837Z,62.86
2022-09-30T22:06:33.691Z,62.72
2022-09-30T22:08:40.853Z,63.22
2022-09-30T22:10:43.474Z,63.38
2022-09-30T22:12:46.414Z,63.41
2022-09-30T22:14:48.040Z,63.74
2022-09-30T22:16:50.023Z,63.18
2022-09-30T22:18:56.165Z,62.86
2022-09-30T22:21:03.575Z,62.54
2022-09-30T22:23:05.180Z,62.51
2022-09-30T22:25:07.730Z,62.30
2022-09-30T22:27:09.374Z,62.28
2022-09-30T22:29:12.187Z,62.07
2022-09-30T22:31:22.349Z,62.46
2022-09-30T22:33:42.493Z,62.79
2022-09-30T22:36:02.979Z,63.45
2022-09-30T22:38:16.639Z,63.61
2022-09-30T22:40:18.269Z,63.58
2022-09-30T22:42:19.973Z,65.28
2022-09-30T22:44:24.763Z,66.03
2022-09-30T22:46:26.719Z,65.99
2022-09-30T22:48:29.878Z,65.56
2022-09-30T22:50:35.591Z,65.31
2022-09-30T22:52:37.201Z,65.71
2022-09-30T22:54:39.050Z,65.91
2022-09-30T22:56:41.030Z,65.78
2022-09-30T22:58:42.636Z,65.63
2022-09-30T23:00:55.229Z,65.48
2022-09-30T23:02:56.950Z,65.22
2022-09-30T23:04:59.705Z,64.85
2022-09-30T23:07:01.394Z,64.59
2022-09-30T23:09:07.125Z,65.29
2022-09-30T23:11:10.563Z,65.55
2022-09-30T23:13:13.379Z,65.21
2022-09-30T23:15:15.361Z,66.37
2022-09-30T23:17:16.964Z,66.43
2022-09-30T23:19:19.208Z,67.26
2022-09-30T23:21:21.278Z,67.36
2022-09-30T23:23:23.117Z,67.32
2022-09-30T23:25:24.747Z,67.44
2022-09-30T23:27:26.424Z,68.02
2022-09-30T23:29:28.055Z,68.11
2022-09-30T23:31:30.096Z,68.23
2022-09-30T23:33:31.826Z,67.75
2022-09-30T23:35:33.539Z,67.65
2022-09-30T23:37:35.197Z,66.98
2022-09-30T23:39:37.026Z,66.74
2022-09-30T23:41:38.986Z,67.13
2022-09-30T23:43:45.817Z,66.80
2022-09-30T23:45:47.792Z,66.71
2022-09-30T23:47:49.527Z,66.81
2022-09-30T23:49:51.160Z,67.05
2022-09-30T23:51:52.805Z,66.73
2022-09-30T23:53:54.729Z,67.17
2022-09-30T23:55:57.903Z,67.41
2022-09-30T23:57:59.507Z,67.21
